Time;durP1;ratioP1;P1;durP2;ratioP2;P2;SDS_P1;SDS_P2;PMS_P1;PMS_P2;Temp;Humidity;BMP_temperature;BMP_pressure;BME280_temperature;BME280_humidity;BME280_pressure;Samples;Min_cycle;Max_cycle;Signal;HPM_P1;HPM_P2
2021/12/23 00:01:59;;;;;;;;;;;;;;;15.66;44.04;101657.44;5041835;28;19921;-45
2021/12/23 00:04:24;;;;;;;;;;;;;;;15.66;43.89;101644.03;5042560;28;19913;-45
2021/12/23 00:06:49;;;;;;;;;;;;;;;15.65;44.05;101623.56;5042375;28;19913;-48
2021/12/23 00:09:14;;;;;;;;;;;;;;;15.64;44.02;101614.69;5042477;28;19913;-45
2021/12/23 00:11:39;;;;;;;;;;;;;;;15.64;43.98;101614.69;5042307;28;19913;-47
2021/12/23 00:14:07;;;;;;;;;;;;;;;15.64;44.03;101608.44;5042330;28;20601;-48
2021/12/23 00:17:16;;;;;;;;;;;;;;;15.63;43.98;101604.91;5041705;28;19921;-48
2021/12/23 00:19:37;;;;;;;;;;;;;;;15.64;44.09;101605.75;5041245;28;19917;-47
2021/12/23 00:24:47;;;;;;;;;;;;;;;15.63;43.90;101596.88;5022317;28;19920;-47
2021/12/23 00:27:14;;;;;;;;;;;;;;;15.63;44.07;101601.34;5022219;28;20016;-45
2021/12/23 00:29:39;;;;;;;;;;;;;;;15.63;44.01;101604.91;5022750;28;20092;-45
2021/12/23 00:32:07;;;;;;;;;;;;;;;15.63;44.07;101591.50;5022062;28;19945;-47
2021/12/23 00:34:32;;;;;;;;;;;;;;;15.64;43.95;101577.16;5022133;28;19913;-46
2021/12/23 00:36:59;;;;;;;;;;;;;;;15.65;43.83;101569.97;5022233;28;19921;-48
2021/12/23 00:39:26;;;;;;;;;;;;;;;15.64;43.92;101562.88;5022603;28;19956;-48
2021/12/23 00:41:52;;;;;;;;;;;;;;;15.64;44.08;101553.03;5022077;28;19924;-46
2021/12/23 00:44:17;;;;;;;;;;;;;;;15.65;44.04;101567.28;5022536;28;19941;-46
2021/12/23 00:46:42;;;;;;;;;;;;;;;15.64;44.04;101582.50;5024796;28;20007;-44
2021/12/23 00:49:07;;;;;;;;;;;;;;;15.64;43.90;101579.84;5042063;28;20361;-46
2021/12/23 00:51:33;;;;;;;;;;;;;;;15.64;43.97;101585.19;5044771;28;20587;-46
2021/12/23 00:54:04;;;;;;;;;;;;;;;15.65;43.96;101575.31;5045504;28;19913;-47
2021/12/23 00:56:33;;;;;;;;;;;;;;;15.64;44.00;101569.09;5045245;28;19913;-49
2021/12/23 00:58:58;;;;;;;;;;;;;;;15.65;43.99;101564.59;5044284;28;19998;-47
2021/12/23 01:01:24;;;;;;;;;;;;;;;15.65;43.98;101559.22;5045216;28;20360;-47
2021/12/23 01:03:49;;;;;;;;;;;;;;;15.64;44.03;101542.31;5044886;28;19917;-47
2021/12/23 01:06:14;;;;;;;;;;;;;;;15.65;43.88;101513.66;5045515;28;19913;-45
2021/12/23 01:08:39;;;;;;;;;;;;;;;15.65;44.02;101522.56;5045309;28;19917;-49
2021/12/23 01:11:04;;;;;;;;;;;;;;;15.64;43.97;101512.81;5045369;28;19913;-45
2021/12/23 01:13:29;;;;;;;;;;;;;;;15.64;43.88;101523.53;5045041;28;19944;-46
2021/12/23 01:16:14;;;;;;;;;;;;;;;15.65;43.90;101535.09;5045239;28;19921;-48
2021/12/23 01:18:51;;;;;;;;;;;;;;;15.64;44.05;101518.19;5044260;28;19924;-45
2021/12/23 01:21:16;;;;;;;;;;;;;;;15.63;43.86;101518.25;5045408;28;19944;-45
2021/12/23 01:23:49;;;;;;;;;;;;;;;15.63;43.93;101527.19;5039781;28;19917;-44
2021/12/23 01:26:19;;;;;;;;;;;;;;;15.62;43.91;101536.19;5044837;28;19971;-45
2021/12/23 01:28:45;;;;;;;;;;;;;;;15.63;43.99;101543.25;5044983;28;19916;-47
2021/12/23 01:31:10;;;;;;;;;;;;;;;15.62;43.94;101527.28;5044986;28;19917;-44
2021/12/23 01:33:36;;;;;;;;;;;;;;;15.62;43.91;101513.88;5044185;28;19913;-45
2021/12/23 01:36:01;;;;;;;;;;;;;;;15.62;43.96;101506.69;5044997;28;19927;-46
2021/12/23 01:38:26;;;;;;;;;;;;;;;15.61;43.93;101501.47;5044710;28;19913;-45
2021/12/23 01:40:51;;;;;;;;;;;;;;;15.61;43.94;101501.47;5044638;28;19924;-44
2021/12/23 01:43:20;;;;;;;;;;;;;;;15.61;43.87;101512.19;5044494;28;19913;-44
2021/12/23 01:45:46;;;;;;;;;;;;;;;15.61;44.04;101507.69;5044585;28;20302;-43
2021/12/23 01:48:11;;;;;;;;;;;;;;;15.62;43.84;101503.16;5059002;28;19917;-45
2021/12/23 01:50:39;;;;;;;;;;;;;;;15.61;44.04;101502.31;5044626;28;19913;-48
2021/12/23 01:53:04;;;;;;;;;;;;;;;15.61;43.88;101496.97;5044725;28;19913;-45
2021/12/23 01:55:29;;;;;;;;;;;;;;;15.60;43.88;101506.00;5044107;28;19917;-49
2021/12/23 01:57:54;;;;;;;;;;;;;;;15.61;44.00;101488.91;5059410;28;19921;-43
2021/12/23 02:00:21;;;;;;;;;;;;;;;15.62;43.82;101501.31;5043347;28;19913;-45
2021/12/23 02:02:46;;;;;;;;;;;;;;;15.62;43.86;101492.44;5043106;28;19913;-45
2021/12/23 02:05:11;;;;;;;;;;;;;;;15.61;43.95;101483.56;5044537;28;19920;-44
2021/12/23 02:07:37;;;;;;;;;;;;;;;15.62;43.92;101479.88;5043883;28;19917;-46
2021/12/23 02:10:03;;;;;;;;;;;;;;;15.63;43.83;101478.06;5044211;28;19917;-45
2021/12/23 02:12:28;;;;;;;;;;;;;;;15.62;43.92;101493.28;5043907;28;19981;-43
2021/12/23 02:14:53;;;;;;;;;;;;;;;15.62;43.87;101484.41;5044005;28;19913;-44
2021/12/23 02:17:19;;;;;;;;;;;;;;;15.63;43.86;101459.28;5043057;28;19932;-46
2021/12/23 02:19:44;;;;;;;;;;;;;;;15.62;44.00;101458.44;5059426;28;20484;-44
2021/12/23 02:22:09;;;;;;;;;;;;;;;15.64;43.82;101469.06;5043896;28;19921;-45
2021/12/23 02:24:34;;;;;;;;;;;;;;;15.64;43.92;101461.00;5043573;28;19959;-44
2021/12/23 02:26:59;;;;;;;;;;;;;;;15.64;43.90;101458.31;5043751;28;19947;-46
2021/12/23 02:29:24;;;;;;;;;;;;;;;15.64;43.88;101450.28;5043571;28;20417;-45
2021/12/23 02:31:50;;;;;;;;;;;;;;;15.64;43.79;101437.75;5043084;28;19917;-45
2021/12/23 02:34:19;;;;;;;;;;;;;;;15.63;43.78;101452.13;5043683;28;19919;-44
2021/12/23 02:36:48;;;;;;;;;;;;;;;15.64;43.88;101453.84;5042338;28;19913;-44
2021/12/23 02:39:13;;;;;;;;;;;;;;;15.64;43.89;101448.47;5043738;28;19949;-44
2021/12/23 02:41:42;;;;;;;;;;;;;;;15.64;43.88;101442.25;5043209;28;19940;-47
2021/12/23 02:44:07;;;;;;;;;;;;;;;15.64;43.72;101428.84;5043441;28;19983;-47
2021/12/23 02:46:33;;;;;;;;;;;;;;;15.64;43.92;101426.16;5043333;28;20409;-43
2021/12/23 02:48:58;;;;;;;;;;;;;;;15.64;43.82;101415.44;5043051;28;19914;-45
2021/12/23 02:51:24;;;;;;;;;;;;;;;15.64;43.85;101432.41;5043479;28;19948;-43
2021/12/23 02:53:49;;;;;;;;;;;;;;;15.63;43.76;101417.28;5043021;28;19928;-44
2021/12/23 02:56:15;;;;;;;;;;;;;;;15.64;43.93;101418.13;5042850;28;19917;-47
2021/12/23 02:58:40;;;;;;;;;;;;;;;15.63;43.86;101400.31;5043213;28;19988;-45
2021/12/23 03:01:07;;;;;;;;;;;;;;;15.62;43.87;101386.06;5033129;28;19953;-44
2021/12/23 03:03:32;;;;;;;;;;;;;;;15.62;43.84;101391.44;5022861;28;19940;-44
2021/12/23 03:05:57;;;;;;;;;;;;;;;15.63;43.77;101394.97;5023677;28;20283;-43
2021/12/23 03:08:29;;;;;;;;;;;;;;;15.62;43.94;101404.84;5023486;28;20351;-46
2021/12/23 03:10:54;;;;;;;;;;;;;;;15.62;43.86;101415.56;5028607;28;19913;-46
2021/12/23 03:13:20;;;;;;;;;;;;;;;15.62;43.90;101409.34;5022368;28;19937;-45
2021/12/23 03:15:45;;;;;;;;;;;;;;;15.62;43.77;101418.22;5022951;28;19929;-49
2021/12/23 03:18:10;;;;;;;;;;;;;;;15.62;43.78;101402.16;5037735;28;19924;-48
2021/12/23 03:20:35;;;;;;;;;;;;;;;15.63;43.80;101395.84;5042858;28;19970;-46
2021/12/23 03:23:00;;;;;;;;;;;;;;;15.63;43.82;101379.75;5042992;28;19913;-45
2021/12/23 03:25:25;;;;;;;;;;;;;;;15.63;43.91;101386.91;5042309;28;19917;-47
2021/12/23 03:27:51;;;;;;;;;;;;;;;15.63;43.86;101378.88;5042659;28;20313;-50
2021/12/23 03:30:16;;;;;;;;;;;;;;;15.63;43.77;101361.00;5042832;28;20585;-47
2021/12/23 03:32:41;;;;;;;;;;;;;;;15.63;43.90;101355.63;5042115;28;19913;-44
2021/12/23 03:35:06;;;;;;;;;;;;;;;15.63;43.90;101368.16;5042732;28;19917;-49
2021/12/23 03:37:31;;;;;;;;;;;;;;;15.62;43.87;101375.34;5042792;28;19913;-47
2021/12/23 03:39:57;;;;;;;;;;;;;;;15.63;43.72;101371.72;5042761;28;19921;-46
2021/12/23 03:42:22;;;;;;;;;;;;;;;15.63;43.86;101360.13;5042400;28;19952;-49
2021/12/23 03:44:47;;;;;;;;;;;;;;;15.63;43.76;101346.72;5042536;28;19913;-44
2021/12/23 03:47:12;;;;;;;;;;;;;;;15.63;43.80;101350.28;5041741;28;19921;-47
2021/12/23 03:49:38;;;;;;;;;;;;;;;15.62;43.70;101343.19;5042652;28;19913;-45
2021/12/23 03:52:03;;;;;;;;;;;;;;;15.62;43.72;101343.19;5042777;28;20396;-45
2021/12/23 03:54:28;;;;;;;;;;;;;;;15.63;43.66;101349.38;5042674;28;19913;-48
2021/12/23 03:56:53;;;;;;;;;;;;;;;15.62;43.65;101348.53;5042028;28;19921;-46
2021/12/23 03:59:18;;;;;;;;;;;;;;;15.62;43.82;101345.88;5042806;28;19917;-45
2021/12/23 04:01:43;;;;;;;;;;;;;;;15.64;43.55;101324.31;5042187;28;19917;-45
2021/12/23 04:04:09;;;;;;;;;;;;;;;15.63;43.76;101309.19;5042301;28;19957;-48
2021/12/23 04:06:34;;;;;;;;;;;;;;;15.63;43.70;101299.34;5042567;28;20389;-49
2021/12/23 04:08:59;;;;;;;;;;;;;;;15.63;43.72;101293.97;5042817;28;20546;-46
2021/12/23 04:11:24;;;;;;;;;;;;;;;15.65;43.63;101272.41;5042546;28;20405;-45
2021/12/23 04:13:52;;;;;;;;;;;;;;;15.64;43.72;101260.84;5042235;28;19924;-45
2021/12/23 04:16:17;;;;;;;;;;;;;;;15.64;43.64;101266.22;5041973;28;19921;-48
2021/12/23 04:18:45;;;;;;;;;;;;;;;15.64;43.75;101266.22;5041740;28;20581;-47
2021/12/23 04:21:11;;;;;;;;;;;;;;;15.65;43.69;101261.69;5042536;28;19921;-45
2021/12/23 04:23:36;;;;;;;;;;;;;;;15.64;43.72;101257.28;5042418;28;20597;-46
2021/12/23 04:26:01;;;;;;;;;;;;;;;15.65;43.67;101250.97;5045870;28;19921;-48
2021/12/23 04:28:27;;;;;;;;;;;;;;;15.64;43.68;101250.13;5045879;28;20437;-47
2021/12/23 04:30:52;;;;;;;;;;;;;;;15.65;43.67;101248.28;5046177;28;19913;-44
2021/12/23 04:33:18;;;;;;;;;;;;;;;15.65;43.58;101237.56;5045350;28;19920;-47
2021/12/23 04:35:43;;;;;;;;;;;;;;;15.64;43.63;101223.31;5045789;28;19913;-47
2021/12/23 04:38:08;;;;;;;;;;;;;;;15.64;43.58;101231.38;5046246;28;19920;-46
2021/12/23 04:40:34;;;;;;;;;;;;;;;15.65;43.62;101248.28;5045780;28;19964;-46
2021/12/23 04:43:01;;;;;;;;;;;;;;;15.65;43.58;101248.28;5045694;28;19917;-49
2021/12/23 04:45:26;;;;;;;;;;;;;;;15.66;43.57;101258.88;5045713;28;19913;-45
2021/12/23 04:47:51;;;;;;;;;;;;;;;15.66;43.60;101269.59;5043775;28;19920;-49
2021/12/23 04:50:16;;;;;;;;;;;;;;;15.67;43.49;101271.31;5045842;28;19913;-47
2021/12/23 04:52:42;;;;;;;;;;;;;;;15.67;43.51;101273.13;5045553;28;19913;-45
2021/12/23 04:55:08;;;;;;;;;;;;;;;15.67;43.55;101271.31;5044179;28;19913;-47
2021/12/23 04:57:33;;;;;;;;;;;;;;;15.67;43.44;101267.75;5045253;28;19913;-48
2021/12/23 04:59:58;;;;;;;;;;;;;;;15.68;43.51;101256.06;5045767;28;20085;-45
2021/12/23 05:02:24;;;;;;;;;;;;;;;15.67;43.40;101246.31;5044923;28;20004;-48
2021/12/23 05:04:50;;;;;;;;;;;;;;;15.69;43.43;101247.88;5045561;28;19939;-45
2021/12/23 05:07:16;;;;;;;;;;;;;;;15.68;43.35;101248.03;5045631;28;19920;-46
2021/12/23 05:09:41;;;;;;;;;;;;;;;15.68;43.40;101240.81;5045608;28;19913;-46
2021/12/23 05:12:06;;;;;;;;;;;;;;;15.69;43.32;101241.66;5045161;28;19975;-47
2021/12/23 05:14:31;;;;;;;;;;;;;;;15.69;43.32;101245.19;5045314;28;19913;-48
2021/12/23 05:16:57;;;;;;;;;;;;;;;15.69;43.45;101239.00;5043933;28;20008;-48
2021/12/23 05:19:22;;;;;;;;;;;;;;;15.69;43.35;101234.47;5045383;28;19913;-45
2021/12/23 05:21:47;;;;;;;;;;;;;;;15.69;43.41;101236.31;5045220;28;19951;-49
2021/12/23 05:24:12;;;;;;;;;;;;;;;15.68;43.42;101224.75;5045222;28;19967;-48
2021/12/23 05:26:37;;;;;;;;;;;;;;;15.69;43.36;101220.22;5044314;28;19913;-47
2021/12/23 05:29:03;;;;;;;;;;;;;;;15.70;43.41;101213.88;5043910;28;19925;-48
2021/12/23 05:31:28;;;;;;;;;;;;;;;15.70;43.43;101213.88;5044463;28;19920;-47
2021/12/23 05:33:54;;;;;;;;;;;;;;;15.70;43.41;101216.56;5043907;28;19913;-47
2021/12/23 05:36:19;;;;;;;;;;;;;;;15.70;43.42;101220.06;5043588;28;19924;-44
2021/12/23 05:38:44;;;;;;;;;;;;;;;15.70;43.31;101217.41;5044088;28;19917;-46
2021/12/23 05:41:09;;;;;;;;;;;;;;;15.71;43.51;101207.50;5044117;28;19949;-49
2021/12/23 05:43:34;;;;;;;;;;;;;;;15.72;43.51;101203.88;5043681;28;19923;-46
2021/12/23 05:46:00;;;;;;;;;;;;;;;15.72;43.57;101190.47;5044009;28;19918;-48
2021/12/23 05:48:25;;;;;;;;;;;;;;;15.73;43.60;101205.56;5043112;28;19917;-49
2021/12/23 05:50:51;;;;;;;;;;;;;;;15.74;43.51;101207.25;5044482;28;19967;-46
2021/12/23 05:53:16;;;;;;;;;;;;;;;15.75;43.66;101204.41;5044783;28;19957;-47
2021/12/23 05:55:41;;;;;;;;;;;;;;;15.77;43.68;101206.13;5043976;28;19917;-46
2021/12/23 05:58:06;;;;;;;;;;;;;;;15.78;43.68;101211.34;5043562;28;19913;-47
2021/12/23 06:00:32;;;;;;;;;;;;;;;15.79;43.80;101215.69;5043644;28;19913;-48
2021/12/23 06:02:57;;;;;;;;;;;;;;;15.81;43.80;101218.25;5043314;28;19920;-44
2021/12/23 06:05:23;;;;;;;;;;;;;;;15.82;43.71;101220.78;5043650;28;19984;-46
2021/12/23 06:07:48;;;;;;;;;;;;;;;15.82;43.90;101226.16;5043440;28;19917;-46
2021/12/23 06:10:14;;;;;;;;;;;;;;;15.83;43.93;101219.81;5041004;28;19979;-46
2021/12/23 06:12:40;;;;;;;;;;;;;;;15.84;43.99;101196.50;5043405;28;19917;-47
2021/12/23 06:15:05;;;;;;;;;;;;;;;15.68;43.95;101183.69;5043120;28;19913;-50
2021/12/23 06:17:31;;;;;;;;;;;;;;;15.86;43.96;101205.28;5040672;28;19984;-43
2021/12/23 06:19:56;;;;;;;;;;;;;;;15.86;44.13;101190.03;5041234;28;19925;-45
2021/12/23 06:22:21;;;;;;;;;;;;;;;15.87;44.11;101199.75;5043281;28;19924;-47
2021/12/23 06:24:48;;;;;;;;;;;;;;;15.88;44.22;101184.50;5043008;28;20015;-48
2021/12/23 06:27:17;;;;;;;;;;;;;;;15.89;44.18;101178.19;5043277;28;19913;-48
2021/12/23 06:29:42;;;;;;;;;;;;;;;15.89;44.12;101179.03;5043636;28;19936;-44
2021/12/23 06:32:07;;;;;;;;;;;;;;;15.90;44.15;101190.59;5042711;28;19944;-47
2021/12/23 06:34:32;;;;;;;;;;;;;;;15.90;44.15;101188.75;5058453;28;19913;-48
2021/12/23 06:36:58;;;;;;;;;;;;;;;15.90;44.21;101188.75;5042994;28;19923;-48
2021/12/23 06:39:23;;;;;;;;;;;;;;;15.92;44.21;101175.19;5042933;28;19976;-45
2021/12/23 06:41:48;;;;;;;;;;;;;;;15.93;44.01;101163.50;5042539;28;20296;-49
2021/12/23 06:44:13;;;;;;;;;;;;;;;15.93;44.15;101150.94;5042957;28;19999;-46
2021/12/23 06:46:38;;;;;;;;;;;;;;;15.94;44.21;101143.75;5042776;28;20003;-48
2021/12/23 06:49:03;;;;;;;;;;;;;;;15.94;44.19;101146.41;5042106;28;19925;-45
2021/12/23 06:51:29;;;;;;;;;;;;;;;15.96;44.25;101152.47;5043132;28;19968;-46
2021/12/23 06:53:54;;;;;;;;;;;;;;;15.97;44.21;101154.16;5038842;28;19920;-48
2021/12/23 06:56:19;;;;;;;;;;;;;;;15.97;44.24;101164.88;5041293;28;19917;-45
2021/12/23 06:58:48;;;;;;;;;;;;;;;15.97;44.10;101176.50;5042641;28;19917;-45
2021/12/23 07:01:17;;;;;;;;;;;;;;;15.96;44.17;101180.13;5042793;28;19924;-48
2021/12/23 07:04:06;;;;;;;;;;;;;;;15.98;44.13;101172.81;5042282;28;19949;-46
2021/12/23 07:06:33;;;;;;;;;;;;;;;15.98;44.18;101183.53;5042685;28;19913;-47
2021/12/23 07:09:00;;;;;;;;;;;;;;;15.98;44.13;101183.53;5042327;28;19917;-46
2021/12/23 07:11:25;;;;;;;;;;;;;;;15.99;44.19;101184.38;5042721;28;19924;-48
2021/12/23 07:13:50;;;;;;;;;;;;;;;15.99;44.07;101173.66;5042318;28;19913;-47
2021/12/23 07:16:15;;;;;;;;;;;;;;;15.99;44.15;101158.41;5042311;28;19984;-47
2021/12/23 07:18:41;;;;;;;;;;;;;;;16.00;44.08;101162.78;5041967;28;19913;-46
2021/12/23 07:21:06;;;;;;;;;;;;;;;16.00;44.15;101189.59;5042720;28;20287;-48
2021/12/23 07:23:31;;;;;;;;;;;;;;;16.01;44.17;101187.75;5039650;28;20298;-47
2021/12/23 07:25:56;;;;;;;;;;;;;;;16.01;44.14;101182.38;5042296;28;19917;-46
2021/12/23 07:28:21;;;;;;;;;;;;;;;16.02;44.14;101184.09;5039234;28;19913;-46
2021/12/23 07:30:46;;;;;;;;;;;;;;;16.03;44.03;101171.53;5042316;28;20378;-45
2021/12/23 07:33:11;;;;;;;;;;;;;;;16.04;44.13;101170.53;5041666;28;19913;-46
2021/12/23 07:35:37;;;;;;;;;;;;;;;16.03;44.13;101169.69;5042028;28;19942;-47
2021/12/23 07:38:02;;;;;;;;;;;;;;;16.04;44.10;101168.69;5041995;28;19971;-45
2021/12/23 07:40:28;;;;;;;;;;;;;;;16.04;44.07;101178.59;5042185;28;19940;-46
2021/12/23 07:42:56;;;;;;;;;;;;;;;16.09;44.02;101176.31;5041164;28;19924;-45
2021/12/23 07:45:21;;;;;;;;;;;;;;;16.11;44.12;101177.03;5042572;28;19963;-50
2021/12/23 07:47:47;;;;;;;;;;;;;;;16.12;43.96;101174.19;5041605;28;20086;-45
2021/12/23 07:50:12;;;;;;;;;;;;;;;16.14;43.92;101174.91;5042427;28;19957;-47
2021/12/23 07:52:37;;;;;;;;;;;;;;;16.16;43.82;101172.06;5042571;28;20078;-48
2021/12/23 07:55:02;;;;;;;;;;;;;;;16.19;43.82;101174.47;5042350;28;19932;-44
2021/12/23 07:57:27;;;;;;;;;;;;;;;16.19;43.74;101169.13;5042236;28;19917;-48
2021/12/23 07:59:53;;;;;;;;;;;;;;;16.21;43.84;101161.75;5044553;28;20349;-45
2021/12/23 08:02:18;;;;;;;;;;;;;;;16.21;43.67;101154.53;5044541;28;19921;-46
2021/12/23 08:04:43;;;;;;;;;;;;;;;16.24;43.69;101150.75;5046746;28;19920;-50
2021/12/23 08:07:08;;;;;;;;;;;;;;;16.24;43.65;101150.75;5046248;28;19917;-47
2021/12/23 08:09:33;;;;;;;;;;;;;;;16.24;43.68;101135.47;5046511;28;19920;-48
2021/12/23 08:12:05;;;;;;;;;;;;;;;16.25;43.48;101125.59;5046080;28;19924;-48
2021/12/23 08:14:30;;;;;;;;;;;;;;;16.25;43.61;101122.91;5046223;28;20004;-45
2021/12/23 08:16:56;;;;;;;;;;;;;;;16.27;43.50;101128.13;5045243;28;19941;-48
2021/12/23 08:19:21;;;;;;;;;;;;;;;16.25;43.44;101115.69;5046038;28;19917;-47
2021/12/23 08:21:46;;;;;;;;;;;;;;;16.26;43.40;101103.13;5046186;28;19921;-47
2021/12/23 08:24:11;;;;;;;;;;;;;;;16.27;43.57;101095.94;5045642;28;20333;-45
2021/12/23 08:26:41;;;;;;;;;;;;;;;16.27;43.38;101090.56;5045812;28;19961;-46
2021/12/23 08:29:07;;;;;;;;;;;;;;;16.27;43.36;101086.06;5045271;28;19955;-49
2021/12/23 08:31:32;;;;;;;;;;;;;;;16.27;43.36;101078.00;5045526;28;19917;-47
2021/12/23 08:33:57;;;;;;;;;;;;;;;16.27;43.40;101083.38;5045430;28;20360;-49
2021/12/23 08:36:22;;;;;;;;;;;;;;;16.27;43.37;101083.38;5045440;28;19924;-49
2021/12/23 08:38:47;;;;;;;;;;;;;;;16.28;43.39;101068.13;5045794;28;19917;-45
2021/12/23 08:41:13;;;;;;;;;;;;;;;16.28;43.46;101063.59;5045288;28;19921;-46
2021/12/23 08:43:38;;;;;;;;;;;;;;;16.28;43.40;101068.97;5045046;28;20338;-48
2021/12/23 08:46:03;;;;;;;;;;;;;;;16.29;43.42;101070.66;5045904;28;19920;-48
2021/12/23 08:48:28;;;;;;;;;;;;;;;16.31;43.39;101073.19;5044718;28;19916;-47
2021/12/23 08:50:54;;;;;;;;;;;;;;;16.34;43.42;101075.56;5045726;28;19948;-49
2021/12/23 08:53:19;;;;;;;;;;;;;;;16.38;43.56;101079.66;5045777;28;19917;-46
2021/12/23 08:55:44;;;;;;;;;;;;;;;16.44;43.54;101073.72;5045260;28;20406;-51
2021/12/23 08:58:09;;;;;;;;;;;;;;;16.46;43.51;101067.19;5045047;28;20035;-49
2021/12/23 09:00:36;;;;;;;;;;;;;;;16.49;43.30;101066.06;5045214;28;19917;-47
2021/12/23 09:03:01;;;;;;;;;;;;;;;16.50;43.26;101060.53;5044724;28;19917;-51
2021/12/23 09:05:26;;;;;;;;;;;;;;;16.52;43.35;101055.00;5045278;28;19963;-50
2021/12/23 09:07:51;;;;;;;;;;;;;;;16.53;43.25;101062.06;5044909;28;19917;-48
2021/12/23 09:10:17;;;;;;;;;;;;;;;16.53;43.39;101058.56;5044367;28;19917;-50
2021/12/23 09:12:43;;;;;;;;;;;;;;;16.53;43.43;101045.13;5044304;28;19917;-50
2021/12/23 09:15:08;;;;;;;;;;;;;;;16.53;43.46;101042.44;5045145;28;19913;-49
2021/12/23 09:17:33;;;;;;;;;;;;;;;16.53;43.30;101029.88;5044084;28;19921;-50
2021/12/23 09:19:59;;;;;;;;;;;;;;;16.53;43.50;101018.28;5044738;28;20370;-50
2021/12/23 09:22:24;;;;;;;;;;;;;;;16.52;43.41;101016.56;5038261;28;19924;-48
2021/12/23 09:24:52;;;;;;;;;;;;;;;16.50;43.51;100993.44;5044059;28;20498;-49
2021/12/23 09:27:33;;;;;;;;;;;;;;;16.50;43.64;100985.38;5044057;28;19917;-48
2021/12/23 09:32:52;;;;;;;;;;;;;;;16.50;43.70;100982.69;5040224;28;19931;-53
2021/12/23 09:35:18;;;;;;;;;;;;;;;16.50;43.83;100969.28;5033270;28;20011;-51
2021/12/23 09:37:43;;;;;;;;;;;;;;;16.52;44.07;100973.63;5040080;28;19956;-53
2021/12/23 09:40:08;;;;;;;;;;;;;;;16.52;44.07;100970.94;5042413;28;19924;-55
2021/12/23 09:42:33;;;;;;;;;;;;;;;16.53;43.95;100960.09;5043311;28;19921;-50
2021/12/23 09:45:01;;;;;;;;;;;;;;;16.53;44.01;100948.50;5044290;28;19913;-47
2021/12/23 09:47:28;;;;;;;;;;;;;;;16.53;43.97;100948.50;5024101;28;19913;-49
2021/12/23 09:49:56;;;;;;;;;;;;;;;16.53;43.97;100943.13;5042642;28;19917;-49
2021/12/23 09:52:22;;;;;;;;;;;;;;;16.52;44.03;100938.75;5044789;28;19913;-48
2021/12/23 09:54:47;;;;;;;;;;;;;;;16.52;44.02;100953.00;5043662;28;19925;-49
2021/12/23 09:57:12;;;;;;;;;;;;;;;16.53;43.93;100969.97;5040483;28;20004;-48
2021/12/23 09:59:37;;;;;;;;;;;;;;;16.53;43.94;100957.41;5044534;28;19913;-49
2021/12/23 10:02:03;;;;;;;;;;;;;;;16.55;43.97;100947.34;5058957;28;19989;-50
2021/12/23 10:04:28;;;;;;;;;;;;;;;16.56;43.80;100948.19;5043927;28;19972;-48
2021/12/23 10:06:54;;;;;;;;;;;;;;;16.57;44.03;100945.38;5043385;28;19924;-46
2021/12/23 10:09:37;;;;;;;;;;;;;;;16.59;43.77;100945.19;5044111;28;19965;-50
2021/12/23 10:30:07;;;;;;;;;;;;;;;16.62;43.70;100928.81;5043446;28;19924;-49
2021/12/23 10:31:33;;;;;;;;;;;;;;;16.63;43.82;100935.84;5043508;28;19978;-49
2021/12/23 10:37:14;;;;;;;;;;;;;;;16.61;43.82;100914.53;5032071;28;19917;-49
2021/12/23 10:39:39;;;;;;;;;;;;;;;16.62;43.71;100899.28;5043726;28;20408;-47
2021/12/23 10:42:09;;;;;;;;;;;;;;;16.63;43.68;100892.91;5042932;28;19945;-50
2021/12/23 10:44:34;;;;;;;;;;;;;;;16.62;43.73;100880.47;5043527;28;19938;-49
2021/12/23 10:47:00;;;;;;;;;;;;;;;16.63;43.68;100879.47;5042535;28;19976;-47
2021/12/23 10:49:52;;;;;;;;;;;;;;;16.63;43.82;100885.69;5043161;28;19917;-50
2021/12/23 10:52:23;;;;;;;;;;;;;;;16.63;43.58;100883.00;5039242;28;19921;-50
2021/12/23 11:00:18;;;;;;;;;;;;;;;16.65;43.58;100864.91;5050035;28;19919;-48
2021/12/23 11:03:03;;;;;;;;;;;;;;;16.66;43.55;100855.84;5042523;28;19998;-49
2021/12/23 11:05:34;;;;;;;;;;;;;;;16.68;43.47;100848.47;5043253;28;19920;-49
2021/12/23 11:08:11;;;;;;;;;;;;;;;16.69;43.56;100858.25;5043183;28;19920;-47
2021/12/23 11:36:04;;;;;;;;;;;;;;;16.78;43.31;100804.59;5041786;28;19924;-47
2021/12/23 11:46:08;;;;;;;;;;;;;;;16.83;43.23;100786.22;5042088;28;19917;-47
2021/12/23 11:48:41;;;;;;;;;;;;;;;16.84;43.24;100793.25;5041361;28;19917;-48
2021/12/23 11:51:06;;;;;;;;;;;;;;;16.84;43.29;100786.03;5049062;28;19920;-47
2021/12/23 11:53:32;;;;;;;;;;;;;;;16.85;43.27;100781.50;5057655;28;19917;-50
2021/12/23 11:55:57;;;;;;;;;;;;;;;16.86;43.15;100780.50;5041508;28;19917;-47
2021/12/23 11:58:24;;;;;;;;;;;;;;;16.88;43.13;100775.84;5040760;28;19939;-48
2021/12/23 12:01:03;;;;;;;;;;;;;;;16.87;43.16;100764.25;5040613;28;19921;-48
2021/12/23 12:03:28;;;;;;;;;;;;;;;16.89;42.88;100761.41;5041532;28;19967;-48
2021/12/23 12:05:57;;;;;;;;;;;;;;;16.89;42.95;100766.75;5057744;28;19932;-49
2021/12/23 12:08:23;;;;;;;;;;;;;;;16.89;42.85;100764.91;5041206;28;19913;-50
2021/12/23 12:10:49;;;;;;;;;;;;;;;16.89;42.98;100767.59;5042245;28;19924;-49
2021/12/23 12:13:16;;;;;;;;;;;;;;;16.89;43.08;100753.34;5040709;28;19944;-49
2021/12/23 12:15:47;;;;;;;;;;;;;;;16.90;43.08;100755.03;5042097;28;20057;-47
2021/12/23 12:18:22;;;;;;;;;;;;;;;16.91;43.46;100745.97;5041365;28;19917;-47
2021/12/23 12:20:52;;;;;;;;;;;;;;;16.93;43.59;100742.13;5042355;28;19918;-51
2021/12/23 12:23:22;;;;;;;;;;;;;;;16.96;43.64;100728.38;5042018;28;19996;-46
2021/12/23 12:25:49;;;;;;;;;;;;;;;16.98;43.69;100730.91;5042088;28;19924;-49
2021/12/23 12:28:20;;;;;;;;;;;;;;;17.01;43.89;100719.00;5041588;28;19913;-45
2021/12/23 12:30:51;;;;;;;;;;;;;;;17.03;43.81;100716.97;5040515;28;19917;-48
2021/12/23 12:33:19;;;;;;;;;;;;;;;17.05;43.88;100706.94;5041217;28;19917;-48
2021/12/23 12:35:50;;;;;;;;;;;;;;;17.05;43.78;100710.47;5042034;28;19924;-45
2021/12/23 12:38:19;;;;;;;;;;;;;;;17.08;43.68;100695.88;5041828;28;20373;-44
2021/12/23 12:40:57;;;;;;;;;;;;;;;17.09;43.85;100684.13;5039787;28;20030;-49
2021/12/23 12:43:32;;;;;;;;;;;;;;;17.10;43.74;100683.94;5041768;28;19913;-45
2021/12/23 12:45:57;;;;;;;;;;;;;;;17.11;43.71;100679.41;5044129;28;19913;-48
2021/12/23 12:48:22;;;;;;;;;;;;;;;17.11;43.71;100665.97;5045011;28;20360;-47
2021/12/23 12:50:49;;;;;;;;;;;;;;;17.13;43.52;100658.63;5044157;28;20385;-45
2021/12/23 12:53:18;;;;;;;;;;;;;;;17.15;43.65;100659.28;5044505;28;19949;-49
2021/12/23 12:55:44;;;;;;;;;;;;;;;17.16;43.56;100664.50;5045259;28;19920;-50
2021/12/23 12:58:09;;;;;;;;;;;;;;;17.18;43.45;100661.66;5045416;28;19988;-47
2021/12/23 13:00:37;;;;;;;;;;;;;;;17.20;43.45;100659.63;5045268;28;19948;-49
2021/12/23 13:03:02;;;;;;;;;;;;;;;17.23;43.41;100651.25;5044855;28;19917;-49
2021/12/23 13:05:29;;;;;;;;;;;;;;;17.24;43.46;100632.25;5044783;28;19967;-48
2021/12/23 13:07:54;;;;;;;;;;;;;;;17.27;43.45;100617.66;5045182;28;19920;-48
2021/12/23 13:10:22;;;;;;;;;;;;;;;17.30;43.45;100611.97;5045354;28;20012;-47
2021/12/23 13:12:54;;;;;;;;;;;;;;;17.31;43.36;100602.91;5043514;28;19921;-48
2021/12/23 13:15:23;;;;;;;;;;;;;;;17.33;43.35;100600.03;5044337;28;20500;-50
2021/12/23 13:17:48;;;;;;;;;;;;;;;17.35;43.24;100614.16;5034333;28;19913;-50
2021/12/23 13:20:13;;;;;;;;;;;;;;;17.36;43.23;100613.16;5035226;28;19917;-47
2021/12/23 13:22:39;;;;;;;;;;;;;;;17.35;43.20;100612.31;5044831;28;20028;-47
2021/12/23 13:25:05;;;;;;;;;;;;;;;17.35;43.17;100600.72;5044177;28;19924;-49
2021/12/23 13:27:31;;;;;;;;;;;;;;;17.35;43.17;100606.09;5042829;28;19928;-50
2021/12/23 13:30:03;;;;;;;;;;;;;;;17.33;43.27;100595.53;5045058;28;19916;-51
2021/12/23 13:32:28;;;;;;;;;;;;;;;17.33;43.28;100590.16;5043997;28;19979;-51
2021/12/23 13:34:53;;;;;;;;;;;;;;;17.33;43.10;100594.66;5044390;28;20581;-47
2021/12/23 13:37:18;;;;;;;;;;;;;;;17.30;43.15;100593.16;5044807;28;19944;-47